sensor_id;sensor_type;location;lat;lon;timestamp;P1;durP1;ratioP1;P2;durP2;ratioP2
75691;SDS011;64307;52.508;6.090;2023-02-11T00:00:47;16.93;;;3.50;;
75691;SDS011;64307;52.508;6.090;2023-02-11T00:03:12;21.27;;;4.33;;
75691;SDS011;64307;52.508;6.090;2023-02-11T00:05:37;13.63;;;4.40;;
75691;SDS011;64307;52.508;6.090;2023-02-11T00:08:03;17.13;;;3.50;;
75691;SDS011;64307;52.508;6.090;2023-02-11T00:10:28;12.75;;;3.05;;
75691;SDS011;64307;52.508;6.090;2023-02-11T00:12:53;13.32;;;3.33;;
75691;SDS011;64307;52.508;6.090;2023-02-11T00:15:19;19.73;;;3.40;;
75691;SDS011;64307;52.508;6.090;2023-02-11T00:17:45;18.27;;;4.00;;
75691;SDS011;64307;52.508;6.090;2023-02-11T00:20:10;15.93;;;3.50;;
75691;SDS011;64307;52.508;6.090;2023-02-11T00:22:35;14.43;;;4.15;;
75691;SDS011;64307;52.508;6.090;2023-02-11T00:25:01;15.90;;;3.42;;
75691;SDS011;64307;52.508;6.090;2023-02-11T00:27:26;16.90;;;3.20;;
75691;SDS011;64307;52.508;6.090;2023-02-11T00:29:51;17.90;;;3.25;;
75691;SDS011;64307;52.508;6.090;2023-02-11T00:32:17;13.13;;;2.80;;
75691;SDS011;64307;52.508;6.090;2023-02-11T00:34:42;16.13;;;3.47;;
75691;SDS011;64307;52.508;6.090;2023-02-11T00:37:07;14.73;;;3.03;;
75691;SDS011;64307;52.508;6.090;2023-02-11T00:39:33;12.82;;;3.33;;
75691;SDS011;64307;52.508;6.090;2023-02-11T00:41:58;15.77;;;3.30;;
75691;SDS011;64307;52.508;6.090;2023-02-11T00:44:23;15.30;;;3.15;;
75691;SDS011;64307;52.508;6.090;2023-02-11T00:46:49;15.15;;;3.00;;
75691;SDS011;64307;52.508;6.090;2023-02-11T00:49:14;20.88;;;3.40;;
75691;SDS011;64307;52.508;6.090;2023-02-11T00:51:39;11.02;;;2.22;;
75691;SDS011;64307;52.508;6.090;2023-02-11T00:54:05;22.38;;;3.58;;
75691;SDS011;64307;52.508;6.090;2023-02-11T00:56:31;18.92;;;3.03;;
75691;SDS011;64307;52.508;6.090;2023-02-11T00:58:56;18.45;;;3.78;;
75691;SDS011;64307;52.508;6.090;2023-02-11T01:01:22;12.68;;;3.50;;
75691;SDS011;64307;52.508;6.090;2023-02-11T01:03:48;14.38;;;2.20;;
75691;SDS011;64307;52.508;6.090;2023-02-11T01:06:13;12.13;;;2.67;;
75691;SDS011;64307;52.508;6.090;2023-02-11T01:08:39;17.67;;;2.92;;
75691;SDS011;64307;52.508;6.090;2023-02-11T01:11:05;10.52;;;2.05;;
75691;SDS011;64307;52.508;6.090;2023-02-11T01:13:35;14.20;;;3.03;;
75691;SDS011;64307;52.508;6.090;2023-02-11T01:16:01;19.50;;;3.05;;
75691;SDS011;64307;52.508;6.090;2023-02-11T01:18:27;10.75;;;2.45;;
75691;SDS011;64307;52.508;6.090;2023-02-11T01:20:53;15.85;;;3.30;;
75691;SDS011;64307;52.508;6.090;2023-02-11T01:23:18;16.88;;;2.97;;
75691;SDS011;64307;52.508;6.090;2023-02-11T01:25:44;13.02;;;3.13;;
75691;SDS011;64307;52.508;6.090;2023-02-11T01:28:19;13.40;;;2.92;;
75691;SDS011;64307;52.508;6.090;2023-02-11T01:30:48;17.45;;;3.75;;
75691;SDS011;64307;52.508;6.090;2023-02-11T01:33:14;11.63;;;2.95;;
75691;SDS011;64307;52.508;6.090;2023-02-11T01:35:41;21.17;;;3.50;;
75691;SDS011;64307;52.508;6.090;2023-02-11T01:38:07;11.25;;;2.95;;
75691;SDS011;64307;52.508;6.090;2023-02-11T01:40:38;15.95;;;2.95;;
75691;SDS011;64307;52.508;6.090;2023-02-11T01:43:03;15.52;;;2.78;;
75691;SDS011;64307;52.508;6.090;2023-02-11T01:48:10;12.95;;;2.65;;
75691;SDS011;64307;52.508;6.090;2023-02-11T01:50:39;19.27;;;2.63;;
75691;SDS011;64307;52.508;6.090;2023-02-11T01:53:06;10.23;;;3.15;;
75691;SDS011;64307;52.508;6.090;2023-02-11T01:55:51;19.85;;;3.33;;
75691;SDS011;64307;52.508;6.090;2023-02-11T01:58:37;12.02;;;2.95;;
75691;SDS011;64307;52.508;6.090;2023-02-11T02:01:05;16.63;;;3.13;;
75691;SDS011;64307;52.508;6.090;2023-02-11T02:03:32;15.35;;;3.20;;
75691;SDS011;64307;52.508;6.090;2023-02-11T02:06:24;16.63;;;3.55;;
75691;SDS011;64307;52.508;6.090;2023-02-11T02:09:00;18.83;;;3.63;;
75691;SDS011;64307;52.508;6.090;2023-02-11T02:11:39;22.52;;;3.80;;
75691;SDS011;64307;52.508;6.090;2023-02-11T02:14:04;19.15;;;4.07;;
75691;SDS011;64307;52.508;6.090;2023-02-11T02:16:33;24.63;;;3.35;;
75691;SDS011;64307;52.508;6.090;2023-02-11T02:25:02;21.38;;;3.95;;
75691;SDS011;64307;52.508;6.090;2023-02-11T02:27:58;17.73;;;3.75;;
75691;SDS011;64307;52.508;6.090;2023-02-11T02:33:32;26.05;;;5.00;;
75691;SDS011;64307;52.508;6.090;2023-02-11T02:36:10;23.02;;;3.78;;
75691;SDS011;64307;52.508;6.090;2023-02-11T02:41:44;18.17;;;4.22;;
75691;SDS011;64307;52.508;6.090;2023-02-11T02:44:10;17.05;;;4.07;;
75691;SDS011;64307;52.508;6.090;2023-02-11T02:46:36;15.50;;;3.75;;
75691;SDS011;64307;52.508;6.090;2023-02-11T02:49:02;23.80;;;4.38;;
75691;SDS011;64307;52.508;6.090;2023-02-11T02:54:24;13.85;;;4.13;;
75691;SDS011;64307;52.508;6.090;2023-02-11T03:00:05;19.40;;;4.00;;
75691;SDS011;64307;52.508;6.090;2023-02-11T03:02:49;19.73;;;4.50;;
75691;SDS011;64307;52.508;6.090;2023-02-11T03:05:39;22.17;;;5.25;;
75691;SDS011;64307;52.508;6.090;2023-02-11T03:10:39;19.80;;;5.00;;
75691;SDS011;64307;52.508;6.090;2023-02-11T03:13:08;21.00;;;4.88;;
75691;SDS011;64307;52.508;6.090;2023-02-11T03:15:36;21.38;;;5.88;;
75691;SDS011;64307;52.508;6.090;2023-02-11T03:18:06;19.95;;;5.03;;
75691;SDS011;64307;52.508;6.090;2023-02-11T03:20:35;28.95;;;5.53;;
75691;SDS011;64307;52.508;6.090;2023-02-11T03:23:15;14.77;;;4.70;;
75691;SDS011;64307;52.508;6.090;2023-02-11T03:25:58;17.88;;;5.07;;
75691;SDS011;64307;52.508;6.090;2023-02-11T03:28:31;21.50;;;5.80;;
75691;SDS011;64307;52.508;6.090;2023-02-11T03:31:50;18.67;;;5.28;;
75691;SDS011;64307;52.508;6.090;2023-02-11T03:34:03;21.35;;;5.53;;
75691;SDS011;64307;52.508;6.090;2023-02-11T03:39:13;16.63;;;4.93;;
75691;SDS011;64307;52.508;6.090;2023-02-11T03:41:42;16.95;;;5.68;;
75691;SDS011;64307;52.508;6.090;2023-02-11T03:44:11;20.10;;;5.22;;
75691;SDS011;64307;52.508;6.090;2023-02-11T03:46:39;21.33;;;6.72;;
75691;SDS011;64307;52.508;6.090;2023-02-11T03:49:10;21.27;;;6.25;;
75691;SDS011;64307;52.508;6.090;2023-02-11T03:51:37;22.30;;;6.32;;
75691;SDS011;64307;52.508;6.090;2023-02-11T03:54:04;16.33;;;5.75;;
75691;SDS011;64307;52.508;6.090;2023-02-11T03:56:36;19.58;;;6.15;;
75691;SDS011;64307;52.508;6.090;2023-02-11T03:59:06;19.23;;;5.45;;
75691;SDS011;64307;52.508;6.090;2023-02-11T04:01:31;24.40;;;6.68;;
75691;SDS011;64307;52.508;6.090;2023-02-11T04:03:57;21.90;;;6.85;;
75691;SDS011;64307;52.508;6.090;2023-02-11T04:06:22;23.85;;;7.97;;
75691;SDS011;64307;52.508;6.090;2023-02-11T04:08:47;24.70;;;7.63;;
75691;SDS011;64307;52.508;6.090;2023-02-11T04:11:13;24.00;;;7.17;;
75691;SDS011;64307;52.508;6.090;2023-02-11T04:13:38;21.43;;;6.73;;
75691;SDS011;64307;52.508;6.090;2023-02-11T04:16:03;24.58;;;6.82;;
75691;SDS011;64307;52.508;6.090;2023-02-11T04:18:29;22.13;;;7.70;;
75691;SDS011;64307;52.508;6.090;2023-02-11T04:20:54;23.87;;;6.87;;
75691;SDS011;64307;52.508;6.090;2023-02-11T04:23:19;21.98;;;7.38;;
75691;SDS011;64307;52.508;6.090;2023-02-11T04:25:44;23.75;;;7.57;;
75691;SDS011;64307;52.508;6.090;2023-02-11T04:28:10;27.50;;;7.28;;
75691;SDS011;64307;52.508;6.090;2023-02-11T04:30:35;23.52;;;9.18;;
75691;SDS011;64307;52.508;6.090;2023-02-11T04:33:00;24.42;;;8.75;;
75691;SDS011;64307;52.508;6.090;2023-02-11T04:35:26;26.07;;;8.63;;
75691;SDS011;64307;52.508;6.090;2023-02-11T04:37:51;25.25;;;8.95;;
75691;SDS011;64307;52.508;6.090;2023-02-11T04:40:16;25.88;;;8.05;;
75691;SDS011;64307;52.508;6.090;2023-02-11T04:42:41;28.52;;;8.75;;
75691;SDS011;64307;52.508;6.090;2023-02-11T04:45:07;21.45;;;8.48;;
75691;SDS011;64307;52.508;6.090;2023-02-11T04:47:32;29.95;;;9.45;;
75691;SDS011;64307;52.508;6.090;2023-02-11T04:49:58;27.95;;;8.35;;
75691;SDS011;64307;52.508;6.090;2023-02-11T04:52:23;25.35;;;7.90;;
75691;SDS011;64307;52.508;6.090;2023-02-11T04:54:49;19.48;;;8.15;;
75691;SDS011;64307;52.508;6.090;2023-02-11T04:57:14;26.90;;;8.10;;
75691;SDS011;64307;52.508;6.090;2023-02-11T04:59:39;26.05;;;7.95;;
75691;SDS011;64307;52.508;6.090;2023-02-11T05:02:05;27.90;;;8.25;;
75691;SDS011;64307;52.508;6.090;2023-02-11T05:04:30;25.48;;;8.57;;
75691;SDS011;64307;52.508;6.090;2023-02-11T05:06:55;27.05;;;7.80;;
75691;SDS011;64307;52.508;6.090;2023-02-11T05:09:21;24.37;;;8.27;;
75691;SDS011;64307;52.508;6.090;2023-02-11T05:11:46;23.33;;;8.40;;
75691;SDS011;64307;52.508;6.090;2023-02-11T05:14:11;24.10;;;8.90;;
75691;SDS011;64307;52.508;6.090;2023-02-11T05:16:37;18.55;;;8.82;;
75691;SDS011;64307;52.508;6.090;2023-02-11T05:19:02;28.67;;;9.30;;
75691;SDS011;64307;52.508;6.090;2023-02-11T05:21:27;21.95;;;8.43;;
75691;SDS011;64307;52.508;6.090;2023-02-11T05:23:53;25.52;;;9.05;;
75691;SDS011;64307;52.508;6.090;2023-02-11T05:26:18;23.20;;;8.40;;
75691;SDS011;64307;52.508;6.090;2023-02-11T05:28:43;23.87;;;8.17;;
75691;SDS011;64307;52.508;6.090;2023-02-11T05:31:09;28.70;;;9.65;;
75691;SDS011;64307;52.508;6.090;2023-02-11T05:33:34;22.08;;;8.05;;
75691;SDS011;64307;52.508;6.090;2023-02-11T05:36:01;20.67;;;7.65;;
75691;SDS011;64307;52.508;6.090;2023-02-11T05:38:28;25.00;;;8.48;;
75691;SDS011;64307;52.508;6.090;2023-02-11T05:40:53;24.70;;;9.30;;
75691;SDS011;64307;52.508;6.090;2023-02-11T05:43:19;25.95;;;8.27;;
75691;SDS011;64307;52.508;6.090;2023-02-11T05:45:44;25.58;;;8.43;;
75691;SDS011;64307;52.508;6.090;2023-02-11T05:48:10;30.17;;;9.23;;
75691;SDS011;64307;52.508;6.090;2023-02-11T05:50:35;20.60;;;8.38;;
75691;SDS011;64307;52.508;6.090;2023-02-11T05:53:00;25.70;;;9.73;;
75691;SDS011;64307;52.508;6.090;2023-02-11T05:55:26;25.47;;;9.77;;
75691;SDS011;64307;52.508;6.090;2023-02-11T05:57:51;27.17;;;9.63;;
75691;SDS011;64307;52.508;6.090;2023-02-11T06:00:16;26.63;;;9.35;;
75691;SDS011;64307;52.508;6.090;2023-02-11T06:02:42;30.65;;;9.90;;
75691;SDS011;64307;52.508;6.090;2023-02-11T06:05:07;28.52;;;10.05;;
75691;SDS011;64307;52.508;6.090;2023-02-11T06:07:34;22.70;;;9.48;;
75691;SDS011;64307;52.508;6.090;2023-02-11T06:09:59;28.65;;;10.57;;
75691;SDS011;64307;52.508;6.090;2023-02-11T06:12:24;26.50;;;9.30;;
75691;SDS011;64307;52.508;6.090;2023-02-11T06:17:16;28.20;;;9.68;;
75691;SDS011;64307;52.508;6.090;2023-02-11T06:19:41;31.30;;;10.60;;
75691;SDS011;64307;52.508;6.090;2023-02-11T06:22:06;25.03;;;9.60;;
75691;SDS011;64307;52.508;6.090;2023-02-11T06:24:32;29.35;;;10.60;;
75691;SDS011;64307;52.508;6.090;2023-02-11T06:26:57;28.80;;;11.27;;
75691;SDS011;64307;52.508;6.090;2023-02-11T06:29:22;33.33;;;11.10;;
75691;SDS011;64307;52.508;6.090;2023-02-11T06:31:47;24.02;;;9.95;;
75691;SDS011;64307;52.508;6.090;2023-02-11T06:34:13;31.20;;;12.07;;
75691;SDS011;64307;52.508;6.090;2023-02-11T06:36:38;27.58;;;10.75;;
75691;SDS011;64307;52.508;6.090;2023-02-11T06:41:30;29.80;;;11.15;;
75691;SDS011;64307;52.508;6.090;2023-02-11T06:43:56;28.70;;;11.10;;
75691;SDS011;64307;52.508;6.090;2023-02-11T06:46:21;28.23;;;11.03;;
75691;SDS011;64307;52.508;6.090;2023-02-11T06:48:47;31.42;;;12.05;;
75691;SDS011;64307;52.508;6.090;2023-02-11T06:51:12;32.58;;;12.02;;
75691;SDS011;64307;52.508;6.090;2023-02-11T06:53:40;30.30;;;13.20;;
75691;SDS011;64307;52.508;6.090;2023-02-11T06:56:08;27.40;;;11.35;;
75691;SDS011;64307;52.508;6.090;2023-02-11T06:58:36;28.67;;;11.60;;
75691;SDS011;64307;52.508;6.090;2023-02-11T07:01:05;33.00;;;12.43;;
75691;SDS011;64307;52.508;6.090;2023-02-11T07:03:35;29.85;;;11.07;;
75691;SDS011;64307;52.508;6.090;2023-02-11T07:06:02;36.35;;;12.35;;
75691;SDS011;64307;52.508;6.090;2023-02-11T07:08:29;29.75;;;11.85;;
75691;SDS011;64307;52.508;6.090;2023-02-11T07:10:54;29.85;;;12.90;;
75691;SDS011;64307;52.508;6.090;2023-02-11T07:13:20;33.95;;;11.77;;
75691;SDS011;64307;52.508;6.090;2023-02-11T07:15:45;33.45;;;12.05;;
75691;SDS011;64307;52.508;6.090;2023-02-11T07:18:10;31.90;;;11.95;;
75691;SDS011;64307;52.508;6.090;2023-02-11T07:20:36;32.40;;;12.88;;
75691;SDS011;64307;52.508;6.090;2023-02-11T07:23:02;33.65;;;12.40;;
75691;SDS011;64307;52.508;6.090;2023-02-11T07:25:28;31.52;;;11.88;;
75691;SDS011;64307;52.508;6.090;2023-02-11T07:27:54;27.98;;;12.18;;
75691;SDS011;64307;52.508;6.090;2023-02-11T07:30:19;32.40;;;12.77;;
75691;SDS011;64307;52.508;6.090;2023-02-11T07:32:45;31.85;;;11.85;;
75691;SDS011;64307;52.508;6.090;2023-02-11T07:35:10;33.63;;;12.07;;
75691;SDS011;64307;52.508;6.090;2023-02-11T07:37:35;33.67;;;12.18;;
75691;SDS011;64307;52.508;6.090;2023-02-11T07:40:01;30.75;;;11.98;;
75691;SDS011;64307;52.508;6.090;2023-02-11T07:42:26;37.22;;;11.75;;
75691;SDS011;64307;52.508;6.090;2023-02-11T07:44:53;28.63;;;12.40;;
75691;SDS011;64307;52.508;6.090;2023-02-11T07:47:18;25.10;;;11.57;;
75691;SDS011;64307;52.508;6.090;2023-02-11T07:49:44;29.13;;;12.60;;
75691;SDS011;64307;52.508;6.090;2023-02-11T07:52:09;33.72;;;12.25;;
75691;SDS011;64307;52.508;6.090;2023-02-11T07:54:34;29.20;;;11.53;;
75691;SDS011;64307;52.508;6.090;2023-02-11T07:57:00;33.30;;;12.27;;
75691;SDS011;64307;52.508;6.090;2023-02-11T07:59:25;32.67;;;12.53;;
75691;SDS011;64307;52.508;6.090;2023-02-11T08:01:51;30.63;;;12.27;;
75691;SDS011;64307;52.508;6.090;2023-02-11T08:04:16;28.90;;;13.82;;
75691;SDS011;64307;52.508;6.090;2023-02-11T08:06:42;29.10;;;12.88;;
75691;SDS011;64307;52.508;6.090;2023-02-11T08:09:08;29.27;;;11.95;;
75691;SDS011;64307;52.508;6.090;2023-02-11T08:11:37;31.27;;;12.77;;
75691;SDS011;64307;52.508;6.090;2023-02-11T08:14:02;28.13;;;12.37;;
75691;SDS011;64307;52.508;6.090;2023-02-11T08:16:28;26.25;;;11.68;;
75691;SDS011;64307;52.508;6.090;2023-02-11T08:19:00;30.90;;;13.82;;
75691;SDS011;64307;52.508;6.090;2023-02-11T08:21:28;29.80;;;13.00;;
75691;SDS011;64307;52.508;6.090;2023-02-11T08:23:53;31.33;;;13.00;;
75691;SDS011;64307;52.508;6.090;2023-02-11T08:26:21;27.02;;;12.55;;
75691;SDS011;64307;52.508;6.090;2023-02-11T08:28:49;27.40;;;11.85;;
75691;SDS011;64307;52.508;6.090;2023-02-11T08:31:20;32.05;;;12.90;;
75691;SDS011;64307;52.508;6.090;2023-02-11T08:33:51;26.75;;;12.02;;
75691;SDS011;64307;52.508;6.090;2023-02-11T08:36:19;29.23;;;12.27;;
75691;SDS011;64307;52.508;6.090;2023-02-11T08:38:47;25.48;;;12.38;;
75691;SDS011;64307;52.508;6.090;2023-02-11T08:41:13;30.17;;;12.88;;
75691;SDS011;64307;52.508;6.090;2023-02-11T08:43:39;27.83;;;12.75;;
75691;SDS011;64307;52.508;6.090;2023-02-11T08:46:08;27.63;;;11.90;;
75691;SDS011;64307;52.508;6.090;2023-02-11T08:48:36;25.40;;;12.25;;
75691;SDS011;64307;52.508;6.090;2023-02-11T08:51:05;26.95;;;12.00;;
75691;SDS011;64307;52.508;6.090;2023-02-11T08:53:32;27.13;;;12.13;;
75691;SDS011;64307;52.508;6.090;2023-02-11T08:55:58;25.63;;;12.60;;
75691;SDS011;64307;52.508;6.090;2023-02-11T08:58:24;29.05;;;12.90;;
75691;SDS011;64307;52.508;6.090;2023-02-11T09:00:49;26.42;;;12.30;;
75691;SDS011;64307;52.508;6.090;2023-02-11T09:03:16;25.92;;;12.02;;
75691;SDS011;64307;52.508;6.090;2023-02-11T09:05:42;23.13;;;11.18;;
75691;SDS011;64307;52.508;6.090;2023-02-11T09:08:11;27.15;;;12.20;;
75691;SDS011;64307;52.508;6.090;2023-02-11T09:10:37;25.45;;;11.77;;
75691;SDS011;64307;52.508;6.090;2023-02-11T09:13:03;26.60;;;11.70;;
75691;SDS011;64307;52.508;6.090;2023-02-11T09:15:28;27.15;;;11.93;;
75691;SDS011;64307;52.508;6.090;2023-02-11T09:17:54;22.63;;;10.93;;
75691;SDS011;64307;52.508;6.090;2023-02-11T09:20:19;25.42;;;10.95;;
75691;SDS011;64307;52.508;6.090;2023-02-11T09:25:10;22.10;;;9.87;;
75691;SDS011;64307;52.508;6.090;2023-02-11T09:27:35;22.80;;;11.07;;
75691;SDS011;64307;52.508;6.090;2023-02-11T09:30:01;22.30;;;9.95;;
75691;SDS011;64307;52.508;6.090;2023-02-11T09:32:27;24.05;;;10.07;;
75691;SDS011;64307;52.508;6.090;2023-02-11T09:37:18;19.67;;;9.53;;
75691;SDS011;64307;52.508;6.090;2023-02-11T09:39:43;25.58;;;10.32;;
75691;SDS011;64307;52.508;6.090;2023-02-11T09:45:10;21.00;;;9.20;;
75691;SDS011;64307;52.508;6.090;2023-02-11T09:48:14;22.15;;;9.68;;
75691;SDS011;64307;52.508;6.090;2023-02-11T09:50:47;21.00;;;9.00;;
75691;SDS011;64307;52.508;6.090;2023-02-11T09:53:25;22.67;;;10.25;;
75691;SDS011;64307;52.508;6.090;2023-02-11T09:55:53;20.77;;;9.90;;
75691;SDS011;64307;52.508;6.090;2023-02-11T09:58:30;20.95;;;9.18;;
75691;SDS011;64307;52.508;6.090;2023-02-11T10:12:00;18.25;;;9.00;;
75691;SDS011;64307;52.508;6.090;2023-02-11T10:20:17;15.77;;;7.80;;
75691;SDS011;64307;52.508;6.090;2023-02-11T10:22:53;21.30;;;9.35;;
75691;SDS011;64307;52.508;6.090;2023-02-11T10:25:23;20.48;;;8.65;;
75691;SDS011;64307;52.508;6.090;2023-02-11T10:27:50;17.20;;;8.30;;
75691;SDS011;64307;52.508;6.090;2023-02-11T10:35:48;20.88;;;8.38;;
75691;SDS011;64307;52.508;6.090;2023-02-11T10:38:14;17.73;;;7.90;;
75691;SDS011;64307;52.508;6.090;2023-02-11T10:43:05;17.57;;;7.90;;
75691;SDS011;64307;52.508;6.090;2023-02-11T10:45:36;18.83;;;8.10;;
75691;SDS011;64307;52.508;6.090;2023-02-11T10:48:04;17.65;;;8.25;;
75691;SDS011;64307;52.508;6.090;2023-02-11T10:50:31;18.35;;;7.90;;
75691;SDS011;64307;52.508;6.090;2023-02-11T10:53:14;16.80;;;6.97;;
75691;SDS011;64307;52.508;6.090;2023-02-11T10:55:47;15.77;;;7.20;;
75691;SDS011;64307;52.508;6.090;2023-02-11T10:58:27;15.13;;;6.95;;
75691;SDS011;64307;52.508;6.090;2023-02-11T11:00:55;18.30;;;7.40;;
75691;SDS011;64307;52.508;6.090;2023-02-11T11:03:35;16.55;;;7.60;;
75691;SDS011;64307;52.508;6.090;2023-02-11T11:06:09;14.00;;;6.90;;
75691;SDS011;64307;52.508;6.090;2023-02-11T11:08:38;12.80;;;6.13;;
75691;SDS011;64307;52.508;6.090;2023-02-11T11:11:05;16.83;;;6.75;;
75691;SDS011;64307;52.508;6.090;2023-02-11T11:13:39;15.63;;;6.20;;
75691;SDS011;64307;52.508;6.090;2023-02-11T11:18:30;13.40;;;6.15;;
75691;SDS011;64307;52.508;6.090;2023-02-11T11:23:22;20.10;;;6.63;;
75691;SDS011;64307;52.508;6.090;2023-02-11T11:31:14;17.17;;;5.82;;
75691;SDS011;64307;52.508;6.090;2023-02-11T11:33:43;11.43;;;5.78;;
75691;SDS011;64307;52.508;6.090;2023-02-11T11:36:12;12.80;;;5.60;;
75691;SDS011;64307;52.508;6.090;2023-02-11T11:38:44;12.13;;;6.00;;
75691;SDS011;64307;52.508;6.090;2023-02-11T11:41:19;12.57;;;6.55;;
75691;SDS011;64307;52.508;6.090;2023-02-11T11:43:58;14.02;;;6.35;;
75691;SDS011;64307;52.508;6.090;2023-02-11T11:46:28;13.75;;;6.50;;
75691;SDS011;64307;52.508;6.090;2023-02-11T11:49:00;14.82;;;5.95;;
75691;SDS011;64307;52.508;6.090;2023-02-11T11:51:31;11.98;;;5.18;;
75691;SDS011;64307;52.508;6.090;2023-02-11T11:53:59;12.55;;;5.38;;
75691;SDS011;64307;52.508;6.090;2023-02-11T11:56:29;15.27;;;5.53;;
75691;SDS011;64307;52.508;6.090;2023-02-11T11:58:59;13.52;;;6.28;;
75691;SDS011;64307;52.508;6.090;2023-02-11T12:01:30;16.80;;;5.43;;
75691;SDS011;64307;52.508;6.090;2023-02-11T12:12:40;11.95;;;5.38;;
75691;SDS011;64307;52.508;6.090;2023-02-11T12:17:51;10.60;;;5.45;;
75691;SDS011;64307;52.508;6.090;2023-02-11T12:23:13;13.15;;;6.38;;
75691;SDS011;64307;52.508;6.090;2023-02-11T12:25:45;10.70;;;5.53;;
75691;SDS011;64307;52.508;6.090;2023-02-11T12:31:16;10.27;;;5.15;;
75691;SDS011;64307;52.508;6.090;2023-02-11T12:36:31;14.38;;;5.18;;
75691;SDS011;64307;52.508;6.090;2023-02-11T12:39:33;12.27;;;4.65;;
75691;SDS011;64307;52.508;6.090;2023-02-11T12:42:37;10.88;;;4.72;;
75691;SDS011;64307;52.508;6.090;2023-02-11T12:54:21;10.65;;;4.45;;
75691;SDS011;64307;52.508;6.090;2023-02-11T13:02:43;8.82;;;4.43;;
75691;SDS011;64307;52.508;6.090;2023-02-11T13:05:37;10.65;;;4.15;;
75691;SDS011;64307;52.508;6.090;2023-02-11T13:10:55;11.45;;;4.22;;
75691;SDS011;64307;52.508;6.090;2023-02-11T13:13:28;10.30;;;4.18;;
75691;SDS011;64307;52.508;6.090;2023-02-11T13:16:01;11.48;;;5.20;;
75691;SDS011;64307;52.508;6.090;2023-02-11T13:23:40;7.93;;;3.80;;
75691;SDS011;64307;52.508;6.090;2023-02-11T13:26:48;13.20;;;3.60;;
75691;SDS011;64307;52.508;6.090;2023-02-11T13:32:13;9.75;;;3.65;;
75691;SDS011;64307;52.508;6.090;2023-02-11T13:37:05;7.72;;;3.30;;
75691;SDS011;64307;52.508;6.090;2023-02-11T13:39:53;7.35;;;3.15;;
75691;SDS011;64307;52.508;6.090;2023-02-11T13:42:59;7.28;;;3.45;;
75691;SDS011;64307;52.508;6.090;2023-02-11T13:48:16;9.13;;;3.40;;
75691;SDS011;64307;52.508;6.090;2023-02-11T13:51:18;7.20;;;2.58;;
75691;SDS011;64307;52.508;6.090;2023-02-11T13:53:58;13.65;;;3.53;;
75691;SDS011;64307;52.508;6.090;2023-02-11T13:58:55;14.77;;;3.38;;
75691;SDS011;64307;52.508;6.090;2023-02-11T14:04:28;10.25;;;2.88;;
75691;SDS011;64307;52.508;6.090;2023-02-11T14:16:07;11.77;;;3.53;;
75691;SDS011;64307;52.508;6.090;2023-02-11T14:23:52;7.28;;;3.53;;
75691;SDS011;64307;52.508;6.090;2023-02-11T14:31:13;12.45;;;3.22;;
75691;SDS011;64307;52.508;6.090;2023-02-11T14:36:43;9.13;;;4.05;;
75691;SDS011;64307;52.508;6.090;2023-02-11T14:39:24;9.55;;;3.70;;
75691;SDS011;64307;52.508;6.090;2023-02-11T14:42:01;10.23;;;3.42;;
75691;SDS011;64307;52.508;6.090;2023-02-11T14:44:29;12.82;;;4.00;;
75691;SDS011;64307;52.508;6.090;2023-02-11T14:46:56;10.23;;;3.60;;
75691;SDS011;64307;52.508;6.090;2023-02-11T14:49:26;10.88;;;3.83;;
75691;SDS011;64307;52.508;6.090;2023-02-11T14:51:57;7.38;;;3.30;;
75691;SDS011;64307;52.508;6.090;2023-02-11T14:54:28;11.00;;;3.40;;
75691;SDS011;64307;52.508;6.090;2023-02-11T14:57:04;8.52;;;3.72;;
75691;SDS011;64307;52.508;6.090;2023-02-11T14:59:31;11.32;;;4.13;;
75691;SDS011;64307;52.508;6.090;2023-02-11T15:04:29;9.27;;;3.40;;
75691;SDS011;64307;52.508;6.090;2023-02-11T15:06:57;13.20;;;4.20;;
75691;SDS011;64307;52.508;6.090;2023-02-11T15:09:36;9.50;;;3.58;;
75691;SDS011;64307;52.508;6.090;2023-02-11T15:12:05;10.80;;;3.10;;
75691;SDS011;64307;52.508;6.090;2023-02-11T15:14:40;9.30;;;3.72;;
75691;SDS011;64307;52.508;6.090;2023-02-11T15:17:12;9.35;;;3.65;;
75691;SDS011;64307;52.508;6.090;2023-02-11T15:19:43;8.05;;;3.67;;
75691;SDS011;64307;52.508;6.090;2023-02-11T15:22:16;9.40;;;3.58;;
75691;SDS011;64307;52.508;6.090;2023-02-11T15:24:46;10.95;;;4.22;;
75691;SDS011;64307;52.508;6.090;2023-02-11T15:27:22;10.10;;;3.60;;
75691;SDS011;64307;52.508;6.090;2023-02-11T15:29:50;10.93;;;3.80;;
75691;SDS011;64307;52.508;6.090;2023-02-11T15:32:16;9.25;;;3.95;;
75691;SDS011;64307;52.508;6.090;2023-02-11T15:34:46;10.55;;;4.22;;
75691;SDS011;64307;52.508;6.090;2023-02-11T15:37:13;10.23;;;3.33;;
75691;SDS011;64307;52.508;6.090;2023-02-11T15:42:28;8.17;;;2.97;;
75691;SDS011;64307;52.508;6.090;2023-02-11T15:47:38;10.77;;;3.47;;
75691;SDS011;64307;52.508;6.090;2023-02-11T15:50:06;10.15;;;3.80;;
75691;SDS011;64307;52.508;6.090;2023-02-11T15:52:43;10.50;;;3.35;;
75691;SDS011;64307;52.508;6.090;2023-02-11T15:55:11;14.27;;;5.40;;
75691;SDS011;64307;52.508;6.090;2023-02-11T15:57:41;13.30;;;4.03;;
75691;SDS011;64307;52.508;6.090;2023-02-11T16:00:19;12.38;;;3.63;;
75691;SDS011;64307;52.508;6.090;2023-02-11T16:02:46;8.65;;;2.47;;
75691;SDS011;64307;52.508;6.090;2023-02-11T16:05:24;10.02;;;3.95;;
75691;SDS011;64307;52.508;6.090;2023-02-11T16:07:57;7.93;;;3.65;;
75691;SDS011;64307;52.508;6.090;2023-02-11T16:10:31;9.40;;;3.53;;
75691;SDS011;64307;52.508;6.090;2023-02-11T16:18:03;10.73;;;3.03;;
75691;SDS011;64307;52.508;6.090;2023-02-11T16:20:37;9.90;;;3.63;;
75691;SDS011;64307;52.508;6.090;2023-02-11T16:25:28;8.65;;;3.10;;
75691;SDS011;64307;52.508;6.090;2023-02-11T16:30:32;7.17;;;2.97;;
75691;SDS011;64307;52.508;6.090;2023-02-11T16:32:59;8.57;;;3.13;;
75691;SDS011;64307;52.508;6.090;2023-02-11T16:37:50;9.80;;;3.30;;
75691;SDS011;64307;52.508;6.090;2023-02-11T16:40:15;8.38;;;3.53;;
75691;SDS011;64307;52.508;6.090;2023-02-11T16:45:06;9.43;;;2.93;;
75691;SDS011;64307;52.508;6.090;2023-02-11T16:47:34;9.23;;;3.03;;
75691;SDS011;64307;52.508;6.090;2023-02-11T16:50:00;8.32;;;3.10;;
75691;SDS011;64307;52.508;6.090;2023-02-11T16:52:26;8.18;;;2.88;;
75691;SDS011;64307;52.508;6.090;2023-02-11T16:54:54;7.95;;;3.33;;
75691;SDS011;64307;52.508;6.090;2023-02-11T16:59:47;10.38;;;4.88;;
75691;SDS011;64307;52.508;6.090;2023-02-11T17:04:44;7.63;;;3.42;;
75691;SDS011;64307;52.508;6.090;2023-02-11T17:07:10;8.48;;;3.40;;
75691;SDS011;64307;52.508;6.090;2023-02-11T17:12:01;12.10;;;3.93;;
75691;SDS011;64307;52.508;6.090;2023-02-11T17:14:26;7.63;;;3.13;;
75691;SDS011;64307;52.508;6.090;2023-02-11T17:16:53;9.73;;;3.67;;
75691;SDS011;64307;52.508;6.090;2023-02-11T17:19:18;13.80;;;3.30;;
75691;SDS011;64307;52.508;6.090;2023-02-11T17:21:46;11.52;;;3.95;;
75691;SDS011;64307;52.508;6.090;2023-02-11T17:24:13;11.25;;;2.90;;
75691;SDS011;64307;52.508;6.090;2023-02-11T17:26:39;6.68;;;3.15;;
75691;SDS011;64307;52.508;6.090;2023-02-11T17:29:06;11.18;;;3.17;;
75691;SDS011;64307;52.508;6.090;2023-02-11T17:31:32;11.07;;;3.20;;
75691;SDS011;64307;52.508;6.090;2023-02-11T17:36:23;10.90;;;4.63;;
75691;SDS011;64307;52.508;6.090;2023-02-11T17:38:48;8.07;;;3.57;;
75691;SDS011;64307;52.508;6.090;2023-02-11T17:41:15;9.80;;;3.40;;
75691;SDS011;64307;52.508;6.090;2023-02-11T17:46:06;9.77;;;3.40;;
75691;SDS011;64307;52.508;6.090;2023-02-11T17:48:33;10.75;;;3.60;;
75691;SDS011;64307;52.508;6.090;2023-02-11T17:53:23;10.57;;;3.70;;